Time;durP1;ratioP1;P1;durP2;ratioP2;P2;SDS_P1;SDS_P2;PMS_P1;PMS_P2;Temp;Humidity;BMP_temperature;BMP_pressure;BME280_temperature;BME280_humidity;BME280_pressure;Samples;Min_cycle;Max_cycle;Signal;HPM_P1;HPM_P2
2023/07/11 00:01:18;;;;;;;;;1.25;1.25;;;;;;;;5051804;28;8912;-86
2023/07/11 00:03:45;;;;;;;;;3.75;2.25;;;;;;;;5051780;28;8869;-84
2023/07/11 00:06:17;;;;;;;;;1.00;1.00;;;;;;;;5052001;28;8895;-84
2023/07/11 00:08:44;;;;;;;;;3.50;3.00;;;;;;;;5052268;28;9722;-85
2023/07/11 00:11:12;;;;;;;;;2.00;2.00;;;;;;;;5051620;28;9024;-86
2023/07/11 00:13:40;;;;;;;;;1.25;1.25;;;;;;;;5052293;28;8873;-87
2023/07/11 00:16:11;;;;;;;;;2.00;2.00;;;;;;;;5050583;28;8869;-86
2023/07/11 00:18:38;;;;;;;;;3.00;3.00;;;;;;;;5051311;28;8904;-84
2023/07/11 00:21:06;;;;;;;;;1.00;1.00;;;;;;;;5051310;28;8869;-86
2023/07/11 00:23:34;;;;;;;;;2.25;2.25;;;;;;;;5051517;28;8861;-86
2023/07/11 00:26:01;;;;;;;;;3.00;3.00;;;;;;;;5051732;28;8952;-86
2023/07/11 00:28:29;;;;;;;;;1.50;1.50;;;;;;;;5051350;28;8842;-87
2023/07/11 00:30:56;;;;;;;;;2.00;2.00;;;;;;;;5051156;28;8785;-87
2023/07/11 00:33:25;;;;;;;;;1.25;1.25;;;;;;;;5051414;28;8877;-87
2023/07/11 00:35:53;;;;;;;;;2.50;1.25;;;;;;;;5051809;28;8968;-87
2023/07/11 00:38:23;;;;;;;;;2.75;2.75;;;;;;;;5051303;28;8899;-88
2023/07/11 00:40:54;;;;;;;;;3.75;3.00;;;;;;;;5051935;28;8849;-84
2023/07/11 00:43:22;;;;;;;;;1.50;1.50;;;;;;;;5051509;28;8857;-83
2023/07/11 00:46:12;;;;;;;;;3.25;2.75;;;;;;;;5051909;28;8858;-83
2023/07/11 00:48:43;;;;;;;;;2.75;1.50;;;;;;;;5053528;28;8842;-83
2023/07/11 00:51:14;;;;;;;;;3.00;3.00;;;;;;;;5054091;28;9018;-83
2023/07/11 00:53:44;;;;;;;;;1.50;1.50;;;;;;;;5054271;28;8881;-82
2023/07/11 00:56:20;;;;;;;;;2.00;2.00;;;;;;;;5054889;28;8891;-82
2023/07/11 00:58:48;;;;;;;;;3.00;3.00;;;;;;;;5052555;28;8865;-83
2023/07/11 01:01:18;;;;;;;;;3.25;3.25;;;;;;;;5050659;28;8785;-83
2023/07/11 01:03:48;;;;;;;;;3.50;3.50;;;;;;;;5050500;28;8876;-84
2023/07/11 01:06:18;;;;;;;;;1.75;1.75;;;;;;;;5050219;28;8861;-83
2023/07/11 01:08:48;;;;;;;;;2.00;0.75;;;;;;;;5050650;28;9628;-85
2023/07/11 01:11:15;;;;;;;;;2.25;2.25;;;;;;;;5050761;28;8845;-84
2023/07/11 01:13:42;;;;;;;;;2.25;2.25;;;;;;;;5050389;28;8850;-84
2023/07/11 01:16:10;;;;;;;;;1.00;1.00;;;;;;;;5051104;28;8880;-84
2023/07/11 01:18:38;;;;;;;;;2.50;2.50;;;;;;;;5052690;28;8862;-84
2023/07/11 01:21:08;;;;;;;;;2.75;1.75;;;;;;;;5052745;28;8865;-85
2023/07/11 01:23:37;;;;;;;;;4.00;2.00;;;;;;;;5051465;28;8879;-85
2023/07/11 01:26:06;;;;;;;;;2.75;2.75;;;;;;;;5053382;28;8970;-85
2023/07/11 01:28:33;;;;;;;;;2.75;2.75;;;;;;;;5054535;28;8869;-85
2023/07/11 01:31:02;;;;;;;;;2.00;2.00;;;;;;;;5054468;28;8789;-85
2023/07/11 01:33:29;;;;;;;;;0.25;0.25;;;;;;;;5053119;28;8868;-86
2023/07/11 01:35:56;;;;;;;;;3.75;2.00;;;;;;;;5051161;28;8984;-84
2023/07/11 01:38:25;;;;;;;;;3.50;3.50;;;;;;;;5050209;28;9011;-84
2023/07/11 01:40:54;;;;;;;;;4.00;2.00;;;;;;;;5050921;28;8889;-84
2023/07/11 01:43:22;;;;;;;;;4.50;3.00;;;;;;;;5050167;28;8968;-84
2023/07/11 01:45:49;;;;;;;;;3.00;3.00;;;;;;;;5049498;28;8853;-86
2023/07/11 01:48:17;;;;;;;;;2.25;2.25;;;;;;;;5050295;28;8861;-85
2023/07/11 01:50:44;;;;;;;;;2.75;2.75;;;;;;;;5050039;28;8974;-85
2023/07/11 01:53:12;;;;;;;;;2.50;2.50;;;;;;;;5050037;28;8857;-83
2023/07/11 01:55:39;;;;;;;;;4.00;4.00;;;;;;;;5050039;28;8889;-85
2023/07/11 01:58:08;;;;;;;;;2.00;2.00;;;;;;;;5050845;28;8861;-84
2023/07/11 02:00:36;;;;;;;;;3.00;3.00;;;;;;;;5052034;28;8750;-83
2023/07/11 02:03:04;;;;;;;;;1.75;1.75;;;;;;;;5051237;28;8863;-85
2023/07/11 02:05:33;;;;;;;;;3.00;3.00;;;;;;;;5050859;28;8853;-85
2023/07/11 02:08:00;;;;;;;;;3.00;3.00;;;;;;;;5050054;28;8849;-84
2023/07/11 02:10:27;;;;;;;;;1.75;1.75;;;;;;;;5050118;28;8858;-84
2023/07/11 02:12:54;;;;;;;;;2.50;2.50;;;;;;;;5050112;28;8869;-83
2023/07/11 02:15:23;;;;;;;;;4.00;2.25;;;;;;;;5050106;28;8869;-84
2023/07/11 02:17:51;;;;;;;;;2.00;2.00;;;;;;;;5050443;28;8939;-84
2023/07/11 02:20:18;;;;;;;;;4.00;4.00;;;;;;;;5050730;28;8845;-83
2023/07/11 02:22:45;;;;;;;;;3.50;3.50;;;;;;;;5051811;28;8958;-84
2023/07/11 02:25:13;;;;;;;;;3.00;3.00;;;;;;;;5053164;28;8896;-83
2023/07/11 02:27:40;;;;;;;;;3.75;3.75;;;;;;;;5054054;28;8960;-84
2023/07/11 02:30:08;;;;;;;;;3.00;3.00;;;;;;;;5053339;28;8865;-82
2023/07/11 02:32:39;;;;;;;;;3.00;3.00;;;;;;;;5052454;28;8963;-83
2023/07/11 02:35:07;;;;;;;;;3.50;3.00;;;;;;;;5055218;28;8849;-82
2023/07/11 02:37:34;;;;;;;;;2.25;2.25;;;;;;;;5053964;28;8842;-83
2023/07/11 02:40:02;;;;;;;;;3.00;3.00;;;;;;;;5053653;28;8971;-82
2023/07/11 02:42:29;;;;;;;;;3.25;3.25;;;;;;;;5054878;28;8891;-82
2023/07/11 02:44:56;;;;;;;;;2.50;2.50;;;;;;;;5052997;28;8861;-83
2023/07/11 02:47:24;;;;;;;;;3.00;3.00;;;;;;;;5052444;28;8853;-82
2023/07/11 02:49:53;;;;;;;;;4.00;4.00;;;;;;;;5053379;28;8858;-84
2023/07/11 02:52:20;;;;;;;;;4.00;4.00;;;;;;;;5053015;28;8877;-83
2023/07/11 02:54:49;;;;;;;;;4.25;2.25;;;;;;;;5052779;28;8936;-84
2023/07/11 02:57:16;;;;;;;;;3.00;3.00;;;;;;;;5052930;28;9760;-84
2023/07/11 02:59:44;;;;;;;;;3.00;3.00;;;;;;;;5052783;28;8881;-84
2023/07/11 03:02:12;;;;;;;;;2.00;2.00;;;;;;;;5052844;28;8790;-84
2023/07/11 03:04:39;;;;;;;;;3.00;3.00;;;;;;;;5055144;28;8838;-84
2023/07/11 03:07:08;;;;;;;;;4.00;3.00;;;;;;;;5057040;28;8866;-83
2023/07/11 03:09:37;;;;;;;;;3.75;3.75;;;;;;;;5056723;28;8992;-85
2023/07/11 03:12:05;;;;;;;;;2.25;2.25;;;;;;;;5053824;28;8873;-85
2023/07/11 03:14:32;;;;;;;;;2.25;2.25;;;;;;;;5052749;28;8858;-84
2023/07/11 03:17:00;;;;;;;;;3.00;3.00;;;;;;;;5052406;28;8853;-84
2023/07/11 03:19:27;;;;;;;;;4.75;4.75;;;;;;;;5052468;28;8857;-85
2023/07/11 03:21:54;;;;;;;;;2.00;2.00;;;;;;;;5054167;28;9566;-84
2023/07/11 03:24:23;;;;;;;;;1.25;1.25;;;;;;;;5054741;28;8873;-83
2023/07/11 03:26:52;;;;;;;;;3.00;3.00;;;;;;;;5053094;28;9731;-84
2023/07/11 03:29:19;;;;;;;;;5.00;3.00;;;;;;;;5052528;28;8857;-84
2023/07/11 03:31:49;;;;;;;;;4.75;3.00;;;;;;;;5051571;28;8785;-85
2023/07/11 03:34:16;;;;;;;;;2.00;2.00;;;;;;;;5052425;28;8850;-84
2023/07/11 03:36:44;;;;;;;;;3.75;3.00;;;;;;;;5052224;28;8873;-84
2023/07/11 03:39:11;;;;;;;;;4.00;4.00;;;;;;;;5052382;28;8865;-85
2023/07/11 03:41:40;;;;;;;;;3.75;3.75;;;;;;;;5052125;28;8977;-84
2023/07/11 03:44:09;;;;;;;;;3.50;3.50;;;;;;;;5051847;28;8967;-85
2023/07/11 03:46:36;;;;;;;;;4.00;2.00;;;;;;;;5050424;28;8865;-84
2023/07/11 03:49:03;;;;;;;;;3.75;3.75;;;;;;;;5051241;28;9304;-84
2023/07/11 03:51:30;;;;;;;;;3.00;2.00;;;;;;;;5051977;28;8865;-84
2023/07/11 03:53:58;;;;;;;;;2.75;2.75;;;;;;;;5051655;28;8893;-83
2023/07/11 03:56:27;;;;;;;;;4.00;2.50;;;;;;;;5052839;28;8865;-84
2023/07/11 03:58:55;;;;;;;;;3.00;3.00;;;;;;;;5053335;28;8853;-85
2023/07/11 04:01:23;;;;;;;;;4.00;3.50;;;;;;;;5054130;28;8790;-82
2023/07/11 04:03:53;;;;;;;;;4.00;3.00;;;;;;;;5054968;28;8846;-85
2023/07/11 04:06:20;;;;;;;;;4.75;4.00;;;;;;;;5056261;28;8954;-86
2023/07/11 04:08:48;;;;;;;;;3.00;3.00;;;;;;;;5062551;28;8971;-85
2023/07/11 04:11:15;;;;;;;;;4.75;4.00;;;;;;;;5054378;28;8975;-84
2023/07/11 04:13:42;;;;;;;;;3.50;3.50;;;;;;;;5053231;28;8869;-83
2023/07/11 04:16:11;;;;;;;;;3.50;3.00;;;;;;;;5053231;28;8861;-86
2023/07/11 04:18:38;;;;;;;;;3.00;3.00;;;;;;;;5052666;28;8861;-83
2023/07/11 04:21:06;;;;;;;;;4.50;3.00;;;;;;;;5051062;28;8867;-85
2023/07/11 04:23:33;;;;;;;;;3.00;3.00;;;;;;;;5050885;28;8989;-83
2023/07/11 04:26:00;;;;;;;;;3.75;3.75;;;;;;;;5050497;28;8861;-83
2023/07/11 04:28:28;;;;;;;;;3.00;3.00;;;;;;;;5050832;28;8982;-82
2023/07/11 04:30:55;;;;;;;;;3.00;3.00;;;;;;;;5049828;28;8782;-83
2023/07/11 04:33:24;;;;;;;;;4.00;4.00;;;;;;;;5050597;28;8883;-82
2023/07/11 04:35:51;;;;;;;;;3.50;3.50;;;;;;;;5050155;28;8858;-82
2023/07/11 04:38:21;;;;;;;;;5.00;5.00;;;;;;;;5051705;28;8904;-83
2023/07/11 04:40:48;;;;;;;;;5.00;5.00;;;;;;;;5052623;28;8962;-82
2023/07/11 04:43:15;;;;;;;;;4.00;4.00;;;;;;;;5054448;28;8998;-82
2023/07/11 04:45:45;;;;;;;;;4.75;4.00;;;;;;;;5054014;28;9640;-82
2023/07/11 04:48:12;;;;;;;;;5.00;5.00;;;;;;;;5051461;28;8837;-82
2023/07/11 04:50:41;;;;;;;;;3.50;3.00;;;;;;;;5049870;28;8869;-83
2023/07/11 04:53:08;;;;;;;;;4.00;4.00;;;;;;;;5050194;28;8995;-82
2023/07/11 04:55:35;;;;;;;;;4.50;4.50;;;;;;;;5049906;28;8855;-82
2023/07/11 04:58:03;;;;;;;;;6.50;5.00;;;;;;;;5049658;28;8870;-82
2023/07/11 05:00:30;;;;;;;;;4.25;4.25;;;;;;;;5049577;28;8781;-82
2023/07/11 05:02:57;;;;;;;;;4.00;4.00;;;;;;;;5049853;28;8861;-82
2023/07/11 05:05:25;;;;;;;;;5.00;5.00;;;;;;;;5049516;28;8853;-83
2023/07/11 05:07:53;;;;;;;;;4.75;4.25;;;;;;;;5049664;28;8891;-82
2023/07/11 05:10:21;;;;;;;;;5.25;5.25;;;;;;;;5049696;28;8865;-83
2023/07/11 05:12:50;;;;;;;;;4.00;4.00;;;;;;;;5049431;28;8958;-83
2023/07/11 05:15:17;;;;;;;;;7.00;7.00;;;;;;;;5049285;28;8883;-83
2023/07/11 05:17:45;;;;;;;;;6.00;5.25;;;;;;;;5050749;28;8846;-86
2023/07/11 05:20:12;;;;;;;;;5.00;5.00;;;;;;;;5050800;28;8841;-89
2023/07/11 05:22:40;;;;;;;;;4.00;4.00;;;;;;;;5052153;28;8857;-89
2023/07/11 05:25:10;;;;;;;;;5.75;5.25;;;;;;;;5056391;28;8862;-89
2023/07/11 05:27:37;;;;;;;;;6.25;6.25;;;;;;;;5054106;28;9759;-90
2023/07/11 05:30:06;;;;;;;;;8.50;6.75;;;;;;;;5052120;28;8983;-89
2023/07/11 05:32:33;;;;;;;;;7.00;7.00;;;;;;;;5050623;28;8991;-86
2023/07/11 05:35:00;;;;;;;;;8.25;6.25;;;;;;;;5052592;28;8875;-90
2023/07/11 05:37:28;;;;;;;;;6.75;6.75;;;;;;;;5054524;28;8872;-90
2023/07/11 05:39:55;;;;;;;;;8.50;7.50;;;;;;;;5053851;28;8857;-90
2023/07/11 05:42:24;;;;;;;;;5.75;5.75;;;;;;;;5053420;28;8919;-91
2023/07/11 05:44:51;;;;;;;;;5.25;5.25;;;;;;;;5052064;28;8892;-88
2023/07/11 05:47:20;;;;;;;;;6.00;6.00;;;;;;;;5050392;28;8991;-87
2023/07/11 05:49:50;;;;;;;;;5.00;3.50;;;;;;;;5050718;28;8857;-87
2023/07/11 05:52:18;;;;;;;;;6.00;6.00;;;;;;;;5049924;28;8861;-87
2023/07/11 05:54:45;;;;;;;;;6.50;6.00;;;;;;;;5049416;28;9013;-89
2023/07/11 05:57:14;;;;;;;;;6.00;6.00;;;;;;;;5050155;28;8845;-87
2023/07/11 05:59:42;;;;;;;;;8.50;8.50;;;;;;;;5049538;28;8872;-86
2023/07/11 06:02:11;;;;;;;;;7.00;7.00;;;;;;;;5049230;28;8812;-86
2023/07/11 06:04:38;;;;;;;;;5.00;5.00;;;;;;;;5051166;28;8849;-88
2023/07/11 06:07:05;;;;;;;;;7.25;5.75;;;;;;;;5052616;28;8857;-88
2023/07/11 06:09:33;;;;;;;;;5.00;5.00;;;;;;;;5056451;28;8861;-85
2023/07/11 06:12:00;;;;;;;;;7.80;6.60;;;;;;;;5055264;28;9015;-88
2023/07/11 06:14:27;;;;;;;;;6.20;6.20;;;;;;;;5054180;28;8871;-89
2023/07/11 06:16:56;;;;;;;;;6.80;5.20;;;;;;;;5053810;28;8877;-88
2023/07/11 06:19:23;;;;;;;;;5.80;5.80;;;;;;;;5053965;28;8996;-90
2023/07/11 06:21:50;;;;;;;;;5.80;5.80;;;;;;;;5053904;28;8857;-88
2023/07/11 06:24:20;;;;;;;;;5.20;5.00;;;;;;;;5054261;28;8865;-89
2023/07/11 06:26:48;;;;;;;;;4.80;4.80;;;;;;;;5053129;28;8987;-89
2023/07/11 06:29:16;;;;;;;;;6.00;6.00;;;;;;;;5053693;28;8988;-86
2023/07/11 06:31:46;;;;;;;;;3.80;3.80;;;;;;;;5053026;28;9600;-88
2023/07/11 06:34:17;;;;;;;;;4.40;4.40;;;;;;;;5054056;28;9612;-88
2023/07/11 06:36:44;;;;;;;;;4.40;3.80;;;;;;;;5054611;28;8830;-89
2023/07/11 06:39:12;;;;;;;;;7.40;6.40;;;;;;;;5055961;28;8898;-87
2023/07/11 06:41:39;;;;;;;;;5.00;5.00;;;;;;;;5056235;28;8895;-88
2023/07/11 06:44:08;;;;;;;;;6.40;6.40;;;;;;;;5055590;28;8857;-86
2023/07/11 06:46:35;;;;;;;;;6.20;5.00;;;;;;;;5054322;28;8984;-89
2023/07/11 06:49:03;;;;;;;;;5.00;5.00;;;;;;;;5054641;28;9018;-85
2023/07/11 06:51:32;;;;;;;;;7.20;7.20;;;;;;;;5053772;28;8891;-86
2023/07/11 06:53:59;;;;;;;;;5.60;5.60;;;;;;;;5052741;28;8857;-88
2023/07/11 06:56:28;;;;;;;;;4.20;4.20;;;;;;;;5053242;28;8884;-92
2023/07/11 06:58:55;;;;;;;;;5.60;4.00;;;;;;;;5052830;28;8860;-89
2023/07/11 07:01:23;;;;;;;;;6.00;6.00;;;;;;;;5052498;28;8804;-89
2023/07/11 07:03:50;;;;;;;;;6.60;5.00;;;;;;;;5053015;28;8846;-88
2023/07/11 07:06:19;;;;;;;;;6.60;6.00;;;;;;;;5053379;28;9617;-91
2023/07/11 07:08:48;;;;;;;;;6.40;4.80;;;;;;;;5054098;28;8873;-90
2023/07/11 07:11:17;;;;;;;;;4.40;4.40;;;;;;;;5055784;28;8869;-91
2023/07/11 07:13:44;;;;;;;;;2.20;2.20;;;;;;;;5056661;28;8984;-90
2023/07/11 07:16:11;;;;;;;;;4.80;4.80;;;;;;;;5057182;28;8888;-91
2023/07/11 07:18:41;;;;;;;;;4.80;4.80;;;;;;;;5057536;28;8999;-89
2023/07/11 07:21:09;;;;;;;;;3.80;3.80;;;;;;;;5056082;28;8985;-87
2023/07/11 07:23:37;;;;;;;;;4.80;4.80;;;;;;;;5054955;28;8867;-87
2023/07/11 07:26:06;;;;;;;;;4.00;3.80;;;;;;;;5055285;28;8868;-88
2023/07/11 07:28:35;;;;;;;;;5.80;4.40;;;;;;;;5054587;28;8853;-88
2023/07/11 07:31:03;;;;;;;;;3.40;3.40;;;;;;;;5052132;28;8802;-83
2023/07/11 07:33:31;;;;;;;;;5.00;5.00;;;;;;;;5052274;28;8903;-86
2023/07/11 07:35:59;;;;;;;;;7.40;5.80;;;;;;;;5050613;28;8846;-85
2023/07/11 07:38:27;;;;;;;;;3.80;3.80;;;;;;;;5051809;28;8869;-86
2023/07/11 07:40:55;;;;;;;;;3.60;3.60;;;;;;;;5051536;28;8991;-91
2023/07/11 07:43:24;;;;;;;;;4.40;4.40;;;;;;;;5052427;28;8967;-89
2023/07/11 07:45:52;;;;;;;;;6.20;4.20;;;;;;;;5052771;28;9054;-87
2023/07/11 07:48:20;;;;;;;;;2.20;1.80;;;;;;;;5051904;28;8869;-86
2023/07/11 07:50:48;;;;;;;;;6.00;3.80;;;;;;;;5051416;28;8857;-85
2023/07/11 07:53:19;;;;;;;;;3.60;3.60;;;;;;;;5052741;28;8864;-87
2023/07/11 07:55:46;;;;;;;;;3.60;3.60;;;;;;;;5054738;28;8845;-87
2023/07/11 07:58:14;;;;;;;;;2.00;2.00;;;;;;;;5053521;28;8857;-85
2023/07/11 08:00:48;;;;;;;;;3.60;3.60;;;;;;;;5051738;28;8814;-86
2023/07/11 08:03:16;;;;;;;;;4.40;2.60;;;;;;;;5051366;28;8838;-85
2023/07/11 08:05:43;;;;;;;;;5.00;4.80;;;;;;;;5052186;28;8857;-84
2023/07/11 08:08:10;;;;;;;;;3.00;3.00;;;;;;;;5054895;28;8854;-86
2023/07/11 08:10:38;;;;;;;;;4.00;4.00;;;;;;;;5051812;28;8849;-88
2023/07/11 08:13:05;;;;;;;;;3.80;3.80;;;;;;;;5051535;28;8853;-87
2023/07/11 08:15:32;;;;;;;;;3.20;3.20;;;;;;;;5051593;28;8872;-88
2023/07/11 08:18:01;;;;;;;;;3.00;3.00;;;;;;;;5051160;28;8857;-87
2023/07/11 08:20:28;;;;;;;;;3.00;3.00;;;;;;;;5050766;28;8841;-84
2023/07/11 08:22:55;;;;;;;;;4.00;3.80;;;;;;;;5050695;28;8984;-83
2023/07/11 08:25:23;;;;;;;;;2.60;2.60;;;;;;;;5050968;28;8861;-83
2023/07/11 08:27:51;;;;;;;;;3.40;3.00;;;;;;;;5050609;28;8838;-82
2023/07/11 08:30:18;;;;;;;;;6.00;4.00;;;;;;;;5050116;28;8861;-82
2023/07/11 08:32:46;;;;;;;;;5.20;5.00;;;;;;;;5050711;28;8870;-90
2023/07/11 08:35:15;;;;;;;;;1.00;1.00;;;;;;;;5051059;28;8861;-84
2023/07/11 08:37:44;;;;;;;;;5.20;5.00;;;;;;;;5050942;28;8856;-86
2023/07/11 08:40:18;;;;;;;;;3.80;3.00;;;;;;;;5051902;28;9684;-89
2023/07/11 08:42:48;;;;;;;;;2.60;2.60;;;;;;;;5053298;28;8970;-91
2023/07/11 08:45:22;;;;;;;;;4.00;4.00;;;;;;;;5054959;28;8884;-89
2023/07/11 08:47:56;;;;;;;;;3.80;3.80;;;;;;;;5054827;28;8857;-86
2023/07/11 08:50:28;;;;;;;;;3.20;3.20;;;;;;;;5056304;28;8857;-89
2023/07/11 08:53:08;;;;;;;;;3.80;3.80;;;;;;;;5055537;28;9585;-85
2023/07/11 08:55:38;;;;;;;;;4.40;4.40;;;;;;;;5052971;28;8980;-87
2023/07/11 08:58:10;;;;;;;;;3.80;3.80;;;;;;;;5051626;28;8861;-89
2023/07/11 09:00:38;;;;;;;;;0.60;0.60;;;;;;;;5050402;28;8788;-89
2023/07/11 09:03:14;;;;;;;;;9.00;2.60;;;;;;;;5050226;28;8891;-88
2023/07/11 09:05:45;;;;;;;;;3.80;3.20;;;;;;;;5051075;28;8853;-87
2023/07/11 09:08:15;;;;;;;;;4.00;3.20;;;;;;;;5050756;28;8853;-91
2023/07/11 09:10:49;;;;;;;;;4.00;4.00;;;;;;;;5051082;28;8889;-87
2023/07/11 09:13:45;;;;;;;;;2.80;2.80;;;;;;;;5051405;28;9040;-88
2023/07/11 09:16:21;;;;;;;;;3.00;3.00;;;;;;;;5051987;28;8853;-85
2023/07/11 09:18:56;;;;;;;;;4.00;4.00;;;;;;;;5051327;28;9660;-92
2023/07/11 09:21:32;;;;;;;;;3.20;3.20;;;;;;;;5051321;28;8853;-84
2023/07/11 09:24:07;;;;;;;;;2.80;2.80;;;;;;;;5051770;28;8875;-87
2023/07/11 09:26:37;;;;;;;;;5.20;3.80;;;;;;;;5057005;28;8865;-84
2023/07/11 09:29:05;;;;;;;;;4.00;4.00;;;;;;;;5056187;28;8996;-89
2023/07/11 09:31:38;;;;;;;;;4.00;4.00;;;;;;;;5055117;28;8790;-85
2023/07/11 09:34:15;;;;;;;;;3.20;3.20;;;;;;;;5052262;28;8846;-86
2023/07/11 09:36:44;;;;;;;;;3.80;3.80;;;;;;;;5051425;28;8905;-89
2023/07/11 09:39:20;;;;;;;;;3.00;3.00;;;;;;;;5050956;28;8864;-88
2023/07/11 09:41:52;;;;;;;;;4.00;4.00;;;;;;;;5053838;28;8857;-85
2023/07/11 09:44:19;;;;;;;;;4.80;3.40;;;;;;;;5054506;28;8845;-93
2023/07/11 09:46:47;;;;;;;;;4.40;2.60;;;;;;;;5055694;28;8956;-94
2023/07/11 09:49:20;;;;;;;;;3.60;3.00;;;;;;;;5054912;28;8873;-92
2023/07/11 09:51:54;;;;;;;;;4.20;4.20;;;;;;;;5055589;28;8884;-93
2023/07/11 09:54:23;;;;;;;;;2.80;2.80;;;;;;;;5054448;28;8975;-89
2023/07/11 09:56:51;;;;;;;;;4.00;4.00;;;;;;;;5053980;28;8845;-88
2023/07/11 09:59:21;;;;;;;;;5.40;5.40;;;;;;;;5054002;28;8872;-89
2023/07/11 10:01:53;;;;;;;;;3.00;3.00;;;;;;;;5053716;28;8809;-89
2023/07/11 10:04:24;;;;;;;;;36.20;33.00;;;;;;;;5054588;28;8865;-90
2023/07/11 10:06:58;;;;;;;;;63.00;50.75;;;;;;;;5060390;28;8849;-91
2023/07/11 10:09:27;;;;;;;;;108.40;107.80;;;;;;;;5060475;28;8869;-91
2023/07/11 10:11:56;;;;;;;;;61.40;50.00;;;;;;;;5061007;28;8866;-95
2023/07/11 10:14:27;;;;;;;;;47.40;41.00;;;;;;;;5061237;28;8891;-92
2023/07/11 10:16:56;;;;;;;;;9.00;9.00;;;;;;;;5060780;28;9004;-89
2023/07/11 10:19:23;;;;;;;;;38.80;33.40;;;;;;;;5059169;28;8892;-89
2023/07/11 10:21:53;;;;;;;;;8.60;8.60;;;;;;;;5057941;28;8938;-95
2023/07/11 10:24:23;;;;;;;;;4.00;4.00;;;;;;;;5057724;28;8958;-92
2023/07/11 10:26:57;;;;;;;;;3.80;3.60;;;;;;;;5058570;28;8865;-91
2023/07/11 10:29:29;;;;;;;;;1.20;1.20;;;;;;;;5057270;28;8853;-90
2023/07/11 10:31:59;;;;;;;;;3.00;3.00;;;;;;;;5055894;28;8781;-95
2023/07/11 10:34:31;;;;;;;;;3.80;2.80;;;;;;;;5058274;28;8853;-95
2023/07/11 10:37:05;;;;;;;;;5.40;3.00;;;;;;;;5054768;28;8869;-93
2023/07/11 10:39:39;;;;;;;;;3.00;3.00;;;;;;;;5054444;28;8975;-88
2023/07/11 10:42:10;;;;;;;;;4.80;2.20;;;;;;;;5053608;28;8865;-90
2023/07/11 10:44:41;;;;;;;;;3.60;2.40;;;;;;;;5053980;28;8980;-87
2023/07/11 10:47:10;;;;;;;;;4.20;3.00;;;;;;;;5055555;28;8872;-85
2023/07/11 10:49:41;;;;;;;;;0.00;0.00;;;;;;;;5058195;28;8861;-86
2023/07/11 10:52:24;;;;;;;;;2.00;2.00;;;;;;;;5057642;28;8928;-89
2023/07/11 10:54:56;;;;;;;;;3.60;3.60;;;;;;;;5054598;28;8976;-88
2023/07/11 10:57:36;;;;;;;;;4.20;3.00;;;;;;;;5052889;28;8845;-86
2023/07/11 11:00:08;;;;;;;;;3.60;2.60;;;;;;;;5052329;28;8878;-86
2023/07/11 11:02:43;;;;;;;;;3.00;3.00;;;;;;;;5055640;28;8836;-89
2023/07/11 11:05:19;;;;;;;;;3.00;3.00;;;;;;;;5055531;28;8849;-90
2023/07/11 11:07:53;;;;;;;;;0.60;0.60;;;;;;;;5053026;28;8919;-88
2023/07/11 11:10:31;;;;;;;;;4.20;3.00;;;;;;;;5052671;28;8861;-91
2023/07/11 11:13:07;;;;;;;;;3.40;3.40;;;;;;;;5052335;28;8881;-90
2023/07/11 11:15:43;;;;;;;;;4.00;2.80;;;;;;;;5052570;28;8889;-92
2023/07/11 11:18:27;;;;;;;;;3.40;3.40;;;;;;;;5052526;28;8861;-88
2023/07/11 11:21:03;;;;;;;;;4.00;4.00;;;;;;;;5052499;28;8896;-87
2023/07/11 11:23:46;;;;;;;;;3.00;3.00;;;;;;;;5053513;28;8891;-87
2023/07/11 11:26:21;;;;;;;;;3.00;3.00;;;;;;;;5054235;28;8853;-82
2023/07/11 11:28:57;;;;;;;;;4.20;3.00;;;;;;;;5053441;28;8861;-86
2023/07/11 11:31:26;;;;;;;;;4.00;4.00;;;;;;;;5053664;28;8906;-90
2023/07/11 11:34:04;;;;;;;;;2.60;2.60;;;;;;;;5053294;28;8942;-85
2023/07/11 11:36:45;;;;;;;;;3.00;2.60;;;;;;;;5052864;28;8861;-87
2023/07/11 11:39:22;;;;;;;;;4.60;3.00;;;;;;;;5054104;28;8936;-86
2023/07/11 11:41:56;;;;;;;;;5.40;3.60;;;;;;;;5052757;28;8868;-86
2023/07/11 11:44:32;;;;;;;;;4.60;3.00;;;;;;;;5053742;28;8873;-93
2023/07/11 11:47:00;;;;;;;;;2.20;2.20;;;;;;;;5051959;28;8845;-87
2023/07/11 11:49:28;;;;;;;;;2.60;2.60;;;;;;;;5051263;28;8850;-86
2023/07/11 11:51:56;;;;;;;;;3.00;3.00;;;;;;;;5052512;28;8931;-85
2023/07/11 11:54:26;;;;;;;;;2.40;2.40;;;;;;;;5053246;28;8850;-86
2023/07/11 11:56:58;;;;;;;;;2.60;2.60;;;;;;;;5054874;28;8860;-86
2023/07/11 11:59:27;;;;;;;;;2.60;2.60;;;;;;;;5055497;28;8869;-87
2023/07/11 12:02:05;;;;;;;;;3.00;3.00;;;;;;;;5054680;28;8805;-86
2023/07/11 12:04:38;;;;;;;;;4.00;4.00;;;;;;;;5052568;28;8869;-86
2023/07/11 12:07:24;;;;;;;;;2.00;2.00;;;;;;;;5050235;28;8888;-85
2023/07/11 12:10:27;;;;;;;;;2.40;2.40;;;;;;;;5053661;28;8850;-84
2023/07/11 12:13:17;;;;;;;;;2.60;2.60;;;;;;;;5051911;28;9557;-86
2023/07/11 12:15:52;;;;;;;;;1.60;1.60;;;;;;;;5050779;28;8849;-86
2023/07/11 12:18:34;;;;;;;;;2.40;2.40;;;;;;;;5051706;28;8984;-86
2023/07/11 12:21:32;;;;;;;;;4.80;4.80;;;;;;;;5054476;28;8983;-85
2023/07/11 12:24:34;;;;;;;;;2.00;2.00;;;;;;;;5050045;28;8877;-86
2023/07/11 12:27:26;;;;;;;;;2.60;2.60;;;;;;;;5048396;28;8880;-86
2023/07/11 12:29:54;;;;;;;;;3.20;3.20;;;;;;;;5050357;28;8881;-87
2023/07/11 12:32:53;;;;;;;;;3.00;3.00;;;;;;;;5050721;28;8931;-89
2023/07/11 12:35:22;;;;;;;;;2.40;2.40;;;;;;;;5008471;28;8870;-84
2023/07/11 12:38:07;;;;;;;;;2.80;2.80;;;;;;;;5040953;28;9659;-85
2023/07/11 12:40:41;;;;;;;;;2.00;2.00;;;;;;;;5049872;28;8853;-85
2023/07/11 12:43:19;;;;;;;;;2.00;2.00;;;;;;;;5049895;28;8868;-86
2023/07/11 12:45:49;;;;;;;;;3.60;1.80;;;;;;;;5049773;28;8888;-83
2023/07/11 12:48:19;;;;;;;;;2.40;2.40;;;;;;;;5049796;28;8830;-82
2023/07/11 12:50:49;;;;;;;;;2.20;2.20;;;;;;;;5051697;28;8868;-84
2023/07/11 12:53:17;;;;;;;;;2.80;2.80;;;;;;;;5051689;28;8869;-82
2023/07/11 12:55:46;;;;;;;;;2.00;2.00;;;;;;;;5051724;28;8897;-83
2023/07/11 12:58:26;;;;;;;;;3.40;2.00;;;;;;;;5052916;28;8857;-83
2023/07/11 13:00:54;;;;;;;;;2.40;2.40;;;;;;;;5050906;28;8786;-83
2023/07/11 13:03:25;;;;;;;;;2.40;2.40;;;;;;;;5049901;28;8842;-85
2023/07/11 13:05:56;;;;;;;;;3.00;3.00;;;;;;;;5050115;28;8983;-85
2023/07/11 13:08:23;;;;;;;;;2.00;2.00;;;;;;;;5050150;28;8879;-84
2023/07/11 13:10:52;;;;;;;;;2.20;2.20;;;;;;;;5050020;28;8861;-84
2023/07/11 13:13:23;;;;;;;;;3.00;3.00;;;;;;;;5049682;28;8869;-86
2023/07/11 13:15:51;;;;;;;;;3.20;3.00;;;;;;;;5048796;28;8894;-85
2023/07/11 13:18:30;;;;;;;;;3.80;3.80;;;;;;;;5049425;28;8878;-85
2023/07/11 13:20:58;;;;;;;;;0.00;0.00;;;;;;;;5049751;28;8830;-84
2023/07/11 13:23:26;;;;;;;;;3.80;3.80;;;;;;;;5049744;28;8873;-85
2023/07/11 13:25:54;;;;;;;;;3.00;1.60;;;;;;;;5049557;28;8858;-85
2023/07/11 13:28:25;;;;;;;;;2.00;2.00;;;;;;;;5050220;28;8888;-84
2023/07/11 13:30:58;;;;;;;;;3.40;3.40;;;;;;;;5051904;28;8806;-84
2023/07/11 13:33:29;;;;;;;;;1.00;1.00;;;;;;;;5053430;28;8837;-87
2023/07/11 13:35:59;;;;;;;;;2.40;2.40;;;;;;;;5053354;28;8907;-85
2023/07/11 13:38:43;;;;;;;;;3.00;1.40;;;;;;;;5051180;28;8833;-82
2023/07/11 13:41:16;;;;;;;;;2.60;2.60;;;;;;;;5049507;28;8869;-85
2023/07/11 13:43:47;;;;;;;;;1.60;1.60;;;;;;;;5049555;28;8869;-85
2023/07/11 13:46:15;;;;;;;;;2.00;2.00;;;;;;;;5048467;28;8869;-84
2023/07/11 13:48:45;;;;;;;;;1.00;1.00;;;;;;;;5049406;28;8854;-85
2023/07/11 13:51:21;;;;;;;;;3.00;3.00;;;;;;;;5050059;28;8865;-85
2023/07/11 13:53:52;;;;;;;;;3.00;3.00;;;;;;;;5049512;28;8865;-84
2023/07/11 13:56:22;;;;;;;;;2.00;2.00;;;;;;;;5049465;28;8853;-86
2023/07/11 13:58:51;;;;;;;;;4.00;2.00;;;;;;;;5048258;28;8889;-86
2023/07/11 14:01:22;;;;;;;;;2.20;2.20;;;;;;;;5048834;28;8806;-84
2023/07/11 14:03:51;;;;;;;;;2.00;2.00;;;;;;;;5049230;28;8858;-86
2023/07/11 14:06:19;;;;;;;;;1.20;1.20;;;;;;;;5049244;28;8879;-80
2023/07/11 14:08:47;;;;;;;;;1.60;1.60;;;;;;;;5048664;28;8884;-81
2023/07/11 14:11:16;;;;;;;;;1.00;1.00;;;;;;;;5049493;28;8976;-78
2023/07/11 14:13:43;;;;;;;;;1.60;1.60;;;;;;;;5049732;28;8845;-78
2023/07/11 14:16:12;;;;;;;;;1.20;1.20;;;;;;;;5049306;28;8869;-81
2023/07/11 14:18:39;;;;;;;;;2.00;2.00;;;;;;;;5051675;28;8871;-82
2023/07/11 14:21:07;;;;;;;;;2.00;2.00;;;;;;;;5049553;28;8881;-84
2023/07/11 14:23:34;;;;;;;;;2.00;2.00;;;;;;;;5049945;28;8885;-83
2023/07/11 14:26:02;;;;;;;;;0.40;0.40;;;;;;;;5049130;28;9000;-83
2023/07/11 14:28:29;;;;;;;;;3.00;3.00;;;;;;;;5049218;28;8873;-84
2023/07/11 14:31:00;;;;;;;;;3.00;3.00;;;;;;;;5051648;28;8866;-83
2023/07/11 14:33:34;;;;;;;;;2.00;2.00;;;;;;;;5053296;28;8959;-85
2023/07/11 14:36:02;;;;;;;;;1.80;1.80;;;;;;;;5052278;28;8995;-83
2023/07/11 14:38:29;;;;;;;;;2.00;2.00;;;;;;;;5053201;28;8846;-84
2023/07/11 14:40:58;;;;;;;;;2.00;2.00;;;;;;;;5052751;28;8875;-83
2023/07/11 14:43:27;;;;;;;;;2.00;2.00;;;;;;;;5052606;28;8870;-81
2023/07/11 14:45:55;;;;;;;;;1.00;1.00;;;;;;;;5052262;28;8992;-83
2023/07/11 14:48:23;;;;;;;;;1.40;1.40;;;;;;;;5052261;28;8841;-83
2023/07/11 14:50:56;;;;;;;;;4.20;2.00;;;;;;;;5053225;28;8853;-82
2023/07/11 14:53:32;;;;;;;;;1.00;1.00;;;;;;;;5053398;28;8853;-79
2023/07/11 14:56:00;;;;;;;;;2.80;2.80;;;;;;;;5053694;28;8888;-80
2023/07/11 14:58:27;;;;;;;;;4.00;3.00;;;;;;;;5054093;28;8849;-78
2023/07/11 15:00:54;;;;;;;;;5.00;2.00;;;;;;;;5054209;28;8766;-79
2023/07/11 15:03:24;;;;;;;;;4.60;3.00;;;;;;;;5055079;28;8833;-81
2023/07/11 15:05:52;;;;;;;;;2.20;1.20;;;;;;;;5055574;28;8862;-81
2023/07/11 15:10:19;;;;;;;;;2.00;2.00;;;;;;;;5117848;27;13540;-85
2023/07/11 15:12:50;;;;;;;;;1.60;1.60;;;;;;;;5087248;28;8865;-81
2023/07/11 15:15:19;;;;;;;;;1.60;1.60;;;;;;;;5086932;28;9217;-84